sensor_id;sensor_type;location;lat;lon;timestamp;P1;durP1;ratioP1;P2;durP2;ratioP2
4821;SDS011;2425;47.794;13.068;2022-07-23T00:01:27;9.47;;;8.77;;
4821;SDS011;2425;47.794;13.068;2022-07-23T00:03:54;9.13;;;8.33;;
4821;SDS011;2425;47.794;13.068;2022-07-23T00:06:22;9.50;;;8.70;;
4821;SDS011;2425;47.794;13.068;2022-07-23T00:08:49;9.20;;;8.50;;
4821;SDS011;2425;47.794;13.068;2022-07-23T00:11:17;8.73;;;8.03;;
4821;SDS011;2425;47.794;13.068;2022-07-23T00:13:44;9.33;;;8.60;;
4821;SDS011;2425;47.794;13.068;2022-07-23T00:16:11;8.97;;;8.17;;
4821;SDS011;2425;47.794;13.068;2022-07-23T00:18:38;9.60;;;8.70;;
4821;SDS011;2425;47.794;13.068;2022-07-23T00:21:04;8.60;;;7.90;;
4821;SDS011;2425;47.794;13.068;2022-07-23T00:23:31;9.93;;;7.83;;
4821;SDS011;2425;47.794;13.068;2022-07-23T00:25:58;7.83;;;7.20;;
4821;SDS011;2425;47.794;13.068;2022-07-23T00:28:26;8.07;;;7.47;;
4821;SDS011;2425;47.794;13.068;2022-07-23T00:30:53;9.33;;;7.70;;
4821;SDS011;2425;47.794;13.068;2022-07-23T00:33:20;8.30;;;7.70;;
4821;SDS011;2425;47.794;13.068;2022-07-23T00:35:46;8.00;;;7.40;;
4821;SDS011;2425;47.794;13.068;2022-07-23T00:38:13;8.60;;;7.40;;
4821;SDS011;2425;47.794;13.068;2022-07-23T00:40:40;8.17;;;7.60;;
4821;SDS011;2425;47.794;13.068;2022-07-23T00:43:07;7.60;;;7.10;;
4821;SDS011;2425;47.794;13.068;2022-07-23T00:45:35;7.83;;;7.13;;
4821;SDS011;2425;47.794;13.068;2022-07-23T00:48:02;7.00;;;6.50;;
4821;SDS011;2425;47.794;13.068;2022-07-23T00:50:29;7.90;;;7.20;;
4821;SDS011;2425;47.794;13.068;2022-07-23T00:52:56;8.03;;;7.40;;
4821;SDS011;2425;47.794;13.068;2022-07-23T00:55:23;8.03;;;7.40;;
4821;SDS011;2425;47.794;13.068;2022-07-23T00:57:50;7.90;;;7.17;;
4821;SDS011;2425;47.794;13.068;2022-07-23T01:00:17;7.23;;;6.70;;
4821;SDS011;2425;47.794;13.068;2022-07-23T01:02:45;7.13;;;6.63;;
4821;SDS011;2425;47.794;13.068;2022-07-23T01:05:12;7.80;;;7.20;;
4821;SDS011;2425;47.794;13.068;2022-07-23T01:07:42;7.57;;;6.97;;
4821;SDS011;2425;47.794;13.068;2022-07-23T01:10:22;6.77;;;6.30;;
4821;SDS011;2425;47.794;13.068;2022-07-23T01:13:04;6.93;;;6.37;;
4821;SDS011;2425;47.794;13.068;2022-07-23T01:15:49;6.73;;;6.33;;
4821;SDS011;2425;47.794;13.068;2022-07-23T01:18:27;7.50;;;6.90;;
4821;SDS011;2425;47.794;13.068;2022-07-23T01:20:54;6.40;;;6.00;;
4821;SDS011;2425;47.794;13.068;2022-07-23T01:23:22;7.07;;;6.50;;
4821;SDS011;2425;47.794;13.068;2022-07-23T01:25:49;7.10;;;6.60;;
4821;SDS011;2425;47.794;13.068;2022-07-23T01:28:18;9.33;;;6.50;;
4821;SDS011;2425;47.794;13.068;2022-07-23T01:30:46;6.93;;;6.43;;
4821;SDS011;2425;47.794;13.068;2022-07-23T01:33:14;6.30;;;5.90;;
4821;SDS011;2425;47.794;13.068;2022-07-23T01:35:41;7.33;;;6.73;;
4821;SDS011;2425;47.794;13.068;2022-07-23T01:38:08;6.20;;;5.80;;
4821;SDS011;2425;47.794;13.068;2022-07-23T01:40:36;6.43;;;5.80;;
4821;SDS011;2425;47.794;13.068;2022-07-23T01:43:03;6.80;;;6.27;;
4821;SDS011;2425;47.794;13.068;2022-07-23T01:45:29;6.77;;;6.33;;
4821;SDS011;2425;47.794;13.068;2022-07-23T01:47:56;5.87;;;5.50;;
4821;SDS011;2425;47.794;13.068;2022-07-23T01:50:23;6.70;;;6.20;;
4821;SDS011;2425;47.794;13.068;2022-07-23T01:52:50;6.90;;;6.40;;
4821;SDS011;2425;47.794;13.068;2022-07-23T01:55:17;6.37;;;5.87;;
4821;SDS011;2425;47.794;13.068;2022-07-23T01:57:45;6.17;;;5.77;;
4821;SDS011;2425;47.794;13.068;2022-07-23T02:00:12;6.37;;;5.97;;
4821;SDS011;2425;47.794;13.068;2022-07-23T02:02:39;6.33;;;5.93;;
4821;SDS011;2425;47.794;13.068;2022-07-23T02:05:06;6.13;;;5.73;;
4821;SDS011;2425;47.794;13.068;2022-07-23T02:07:33;6.13;;;5.73;;
4821;SDS011;2425;47.794;13.068;2022-07-23T02:10:00;9.50;;;6.53;;
4821;SDS011;2425;47.794;13.068;2022-07-23T02:12:26;5.93;;;5.53;;
4821;SDS011;2425;47.794;13.068;2022-07-23T02:14:55;6.33;;;5.93;;
4821;SDS011;2425;47.794;13.068;2022-07-23T02:17:21;6.20;;;5.80;;
4821;SDS011;2425;47.794;13.068;2022-07-23T02:19:48;6.20;;;5.80;;
4821;SDS011;2425;47.794;13.068;2022-07-23T02:22:15;5.60;;;5.23;;
4821;SDS011;2425;47.794;13.068;2022-07-23T02:24:42;6.20;;;5.80;;
4821;SDS011;2425;47.794;13.068;2022-07-23T02:27:08;5.90;;;5.50;;
4821;SDS011;2425;47.794;13.068;2022-07-23T02:29:35;6.37;;;5.97;;
4821;SDS011;2425;47.794;13.068;2022-07-23T02:32:04;5.40;;;5.10;;
4821;SDS011;2425;47.794;13.068;2022-07-23T02:34:31;6.07;;;5.67;;
4821;SDS011;2425;47.794;13.068;2022-07-23T02:36:57;5.60;;;5.20;;
4821;SDS011;2425;47.794;13.068;2022-07-23T02:39:24;5.47;;;5.13;;
4821;SDS011;2425;47.794;13.068;2022-07-23T02:41:51;5.90;;;5.50;;
4821;SDS011;2425;47.794;13.068;2022-07-23T02:44:18;6.10;;;5.70;;
4821;SDS011;2425;47.794;13.068;2022-07-23T02:46:44;5.43;;;5.10;;
4821;SDS011;2425;47.794;13.068;2022-07-23T02:49:13;5.57;;;5.17;;
4821;SDS011;2425;47.794;13.068;2022-07-23T02:51:39;5.50;;;5.10;;
4821;SDS011;2425;47.794;13.068;2022-07-23T02:54:06;5.20;;;4.90;;
4821;SDS011;2425;47.794;13.068;2022-07-23T02:56:33;6.20;;;5.77;;
4821;SDS011;2425;47.794;13.068;2022-07-23T02:59:00;5.47;;;5.07;;
4821;SDS011;2425;47.794;13.068;2022-07-23T03:01:26;5.30;;;5.00;;
4821;SDS011;2425;47.794;13.068;2022-07-23T03:03:53;6.03;;;5.67;;
4821;SDS011;2425;47.794;13.068;2022-07-23T03:06:21;5.80;;;5.40;;
4821;SDS011;2425;47.794;13.068;2022-07-23T03:08:48;5.13;;;4.83;;
4821;SDS011;2425;47.794;13.068;2022-07-23T03:11:15;4.90;;;4.60;;
4821;SDS011;2425;47.794;13.068;2022-07-23T03:13:42;5.40;;;5.10;;
4821;SDS011;2425;47.794;13.068;2022-07-23T03:16:09;5.47;;;5.07;;
4821;SDS011;2425;47.794;13.068;2022-07-23T03:18:36;5.60;;;4.83;;
4821;SDS011;2425;47.794;13.068;2022-07-23T03:21:03;4.63;;;4.43;;
4821;SDS011;2425;47.794;13.068;2022-07-23T03:23:32;4.93;;;4.63;;
4821;SDS011;2425;47.794;13.068;2022-07-23T03:25:59;5.00;;;4.70;;
4821;SDS011;2425;47.794;13.068;2022-07-23T03:28:25;5.37;;;4.97;;
4821;SDS011;2425;47.794;13.068;2022-07-23T03:30:52;4.73;;;4.43;;
4821;SDS011;2425;47.794;13.068;2022-07-23T03:33:19;4.83;;;4.43;;
4821;SDS011;2425;47.794;13.068;2022-07-23T03:35:47;5.37;;;4.97;;
4821;SDS011;2425;47.794;13.068;2022-07-23T03:38:14;5.13;;;4.83;;
4821;SDS011;2425;47.794;13.068;2022-07-23T03:40:43;4.30;;;4.10;;
4821;SDS011;2425;47.794;13.068;2022-07-23T03:43:10;4.93;;;4.63;;
4821;SDS011;2425;47.794;13.068;2022-07-23T03:45:37;5.30;;;4.90;;
4821;SDS011;2425;47.794;13.068;2022-07-23T03:48:04;5.50;;;5.10;;
4821;SDS011;2425;47.794;13.068;2022-07-23T03:50:31;4.70;;;4.50;;
4821;SDS011;2425;47.794;13.068;2022-07-23T03:52:57;5.43;;;5.03;;
4821;SDS011;2425;47.794;13.068;2022-07-23T03:55:24;5.33;;;4.93;;
4821;SDS011;2425;47.794;13.068;2022-07-23T03:57:52;5.50;;;4.97;;
4821;SDS011;2425;47.794;13.068;2022-07-23T04:00:19;5.53;;;5.13;;
4821;SDS011;2425;47.794;13.068;2022-07-23T04:02:46;4.87;;;4.57;;
4821;SDS011;2425;47.794;13.068;2022-07-23T04:05:13;4.60;;;4.40;;
4821;SDS011;2425;47.794;13.068;2022-07-23T04:07:40;4.80;;;4.50;;
4821;SDS011;2425;47.794;13.068;2022-07-23T04:10:07;4.67;;;4.43;;
4821;SDS011;2425;47.794;13.068;2022-07-23T04:12:34;4.77;;;4.40;;
4821;SDS011;2425;47.794;13.068;2022-07-23T04:15:02;4.97;;;4.67;;
4821;SDS011;2425;47.794;13.068;2022-07-23T04:17:29;4.63;;;4.33;;
4821;SDS011;2425;47.794;13.068;2022-07-23T04:19:56;5.00;;;4.70;;
4821;SDS011;2425;47.794;13.068;2022-07-23T04:22:23;4.23;;;4.03;;
4821;SDS011;2425;47.794;13.068;2022-07-23T04:24:50;5.10;;;4.70;;
4821;SDS011;2425;47.794;13.068;2022-07-23T04:27:16;4.83;;;4.47;;
4821;SDS011;2425;47.794;13.068;2022-07-23T04:29:43;4.40;;;4.10;;
4821;SDS011;2425;47.794;13.068;2022-07-23T04:32:11;4.53;;;4.10;;
4821;SDS011;2425;47.794;13.068;2022-07-23T04:34:38;4.40;;;4.10;;
4821;SDS011;2425;47.794;13.068;2022-07-23T04:37:05;3.93;;;3.73;;
4821;SDS011;2425;47.794;13.068;2022-07-23T04:39:32;5.23;;;4.83;;
4821;SDS011;2425;47.794;13.068;2022-07-23T04:41:59;4.70;;;4.40;;
4821;SDS011;2425;47.794;13.068;2022-07-23T04:44:25;4.20;;;3.93;;
4821;SDS011;2425;47.794;13.068;2022-07-23T04:46:52;4.47;;;4.27;;
4821;SDS011;2425;47.794;13.068;2022-07-23T04:49:20;4.57;;;4.27;;
4821;SDS011;2425;47.794;13.068;2022-07-23T04:51:47;5.13;;;4.83;;
4821;SDS011;2425;47.794;13.068;2022-07-23T04:54:14;5.13;;;4.83;;
4821;SDS011;2425;47.794;13.068;2022-07-23T04:56:42;4.37;;;4.10;;
4821;SDS011;2425;47.794;13.068;2022-07-23T04:59:09;4.67;;;4.37;;
4821;SDS011;2425;47.794;13.068;2022-07-23T05:01:36;4.07;;;3.87;;
4821;SDS011;2425;47.794;13.068;2022-07-23T05:04:03;4.60;;;4.37;;
4821;SDS011;2425;47.794;13.068;2022-07-23T05:06:31;3.97;;;3.77;;
4821;SDS011;2425;47.794;13.068;2022-07-23T05:08:58;4.63;;;4.20;;
4821;SDS011;2425;47.794;13.068;2022-07-23T05:11:24;4.20;;;3.90;;
4821;SDS011;2425;47.794;13.068;2022-07-23T05:13:51;4.63;;;4.27;;
4821;SDS011;2425;47.794;13.068;2022-07-23T05:16:18;4.23;;;3.93;;
4821;SDS011;2425;47.794;13.068;2022-07-23T05:18:45;4.10;;;3.80;;
4821;SDS011;2425;47.794;13.068;2022-07-23T05:21:12;4.20;;;4.00;;
4821;SDS011;2425;47.794;13.068;2022-07-23T05:23:40;3.90;;;3.70;;
4821;SDS011;2425;47.794;13.068;2022-07-23T05:26:07;4.00;;;3.70;;
4821;SDS011;2425;47.794;13.068;2022-07-23T05:28:33;4.07;;;3.87;;
4821;SDS011;2425;47.794;13.068;2022-07-23T05:31:00;4.23;;;3.93;;
4821;SDS011;2425;47.794;13.068;2022-07-23T05:33:28;3.80;;;3.60;;
4821;SDS011;2425;47.794;13.068;2022-07-23T05:35:59;5.27;;;4.77;;
4821;SDS011;2425;47.794;13.068;2022-07-23T05:38:27;4.10;;;3.90;;
4821;SDS011;2425;47.794;13.068;2022-07-23T05:40:55;4.00;;;3.80;;
4821;SDS011;2425;47.794;13.068;2022-07-23T05:43:22;3.67;;;3.50;;
4821;SDS011;2425;47.794;13.068;2022-07-23T05:45:49;3.83;;;3.67;;
4821;SDS011;2425;47.794;13.068;2022-07-23T05:48:15;3.70;;;3.50;;
4821;SDS011;2425;47.794;13.068;2022-07-23T05:50:42;4.10;;;3.90;;
4821;SDS011;2425;47.794;13.068;2022-07-23T05:53:09;3.90;;;3.70;;
4821;SDS011;2425;47.794;13.068;2022-07-23T05:55:36;4.20;;;3.90;;
4821;SDS011;2425;47.794;13.068;2022-07-23T05:58:04;4.77;;;4.47;;
4821;SDS011;2425;47.794;13.068;2022-07-23T06:00:31;4.10;;;3.80;;
4821;SDS011;2425;47.794;13.068;2022-07-23T06:02:57;3.90;;;3.70;;
4821;SDS011;2425;47.794;13.068;2022-07-23T06:05:24;4.10;;;3.90;;
4821;SDS011;2425;47.794;13.068;2022-07-23T06:07:51;4.87;;;4.00;;
4821;SDS011;2425;47.794;13.068;2022-07-23T06:10:19;3.70;;;3.50;;
4821;SDS011;2425;47.794;13.068;2022-07-23T06:12:46;4.00;;;3.80;;
4821;SDS011;2425;47.794;13.068;2022-07-23T06:15:14;3.53;;;3.33;;
4821;SDS011;2425;47.794;13.068;2022-07-23T06:17:41;3.97;;;3.77;;
4821;SDS011;2425;47.794;13.068;2022-07-23T06:20:08;3.90;;;3.70;;
4821;SDS011;2425;47.794;13.068;2022-07-23T06:22:36;3.00;;;2.90;;
4821;SDS011;2425;47.794;13.068;2022-07-23T06:25:03;4.03;;;3.73;;
4821;SDS011;2425;47.794;13.068;2022-07-23T06:27:30;3.93;;;3.73;;
4821;SDS011;2425;47.794;13.068;2022-07-23T06:29:57;3.80;;;3.60;;
4821;SDS011;2425;47.794;13.068;2022-07-23T06:32:25;3.70;;;3.50;;
4821;SDS011;2425;47.794;13.068;2022-07-23T06:34:52;3.70;;;3.50;;
4821;SDS011;2425;47.794;13.068;2022-07-23T06:37:19;4.07;;;3.87;;
4821;SDS011;2425;47.794;13.068;2022-07-23T06:39:45;3.80;;;3.60;;
4821;SDS011;2425;47.794;13.068;2022-07-23T06:42:12;3.80;;;3.60;;
4821;SDS011;2425;47.794;13.068;2022-07-23T06:44:40;3.80;;;3.60;;
4821;SDS011;2425;47.794;13.068;2022-07-23T06:47:06;4.70;;;4.30;;
4821;SDS011;2425;47.794;13.068;2022-07-23T06:49:35;3.60;;;3.30;;
4821;SDS011;2425;47.794;13.068;2022-07-23T06:52:01;3.73;;;3.53;;
4821;SDS011;2425;47.794;13.068;2022-07-23T06:54:28;4.17;;;3.87;;
4821;SDS011;2425;47.794;13.068;2022-07-23T06:56:55;3.97;;;3.77;;
4821;SDS011;2425;47.794;13.068;2022-07-23T06:59:22;3.80;;;3.60;;
4821;SDS011;2425;47.794;13.068;2022-07-23T07:01:48;3.83;;;3.53;;
4821;SDS011;2425;47.794;13.068;2022-07-23T07:04:15;3.43;;;3.30;;
4821;SDS011;2425;47.794;13.068;2022-07-23T07:06:43;3.60;;;3.40;;
4821;SDS011;2425;47.794;13.068;2022-07-23T07:09:10;3.60;;;3.40;;
4821;SDS011;2425;47.794;13.068;2022-07-23T07:11:37;3.60;;;3.40;;
4821;SDS011;2425;47.794;13.068;2022-07-23T07:14:04;3.80;;;3.60;;
4821;SDS011;2425;47.794;13.068;2022-07-23T07:16:31;3.20;;;3.10;;
4821;SDS011;2425;47.794;13.068;2022-07-23T07:18:58;3.83;;;3.63;;
4821;SDS011;2425;47.794;13.068;2022-07-23T07:21:25;3.30;;;3.20;;
4821;SDS011;2425;47.794;13.068;2022-07-23T07:23:53;3.73;;;3.53;;
4821;SDS011;2425;47.794;13.068;2022-07-23T07:26:20;3.60;;;3.50;;
4821;SDS011;2425;47.794;13.068;2022-07-23T07:28:47;3.10;;;3.00;;
4821;SDS011;2425;47.794;13.068;2022-07-23T07:31:13;3.80;;;3.50;;
4821;SDS011;2425;47.794;13.068;2022-07-23T07:33:40;3.27;;;3.17;;
4821;SDS011;2425;47.794;13.068;2022-07-23T07:36:07;4.20;;;3.90;;
4821;SDS011;2425;47.794;13.068;2022-07-23T07:38:34;4.67;;;4.27;;
4821;SDS011;2425;47.794;13.068;2022-07-23T07:41:03;5.87;;;4.27;;
4821;SDS011;2425;47.794;13.068;2022-07-23T07:43:30;5.00;;;4.70;;
4821;SDS011;2425;47.794;13.068;2022-07-23T07:45:57;5.17;;;4.37;;
4821;SDS011;2425;47.794;13.068;2022-07-23T07:48:24;3.90;;;3.60;;
4821;SDS011;2425;47.794;13.068;2022-07-23T07:50:51;4.80;;;4.20;;
4821;SDS011;2425;47.794;13.068;2022-07-23T07:53:17;4.43;;;4.03;;
4821;SDS011;2425;47.794;13.068;2022-07-23T07:55:44;6.07;;;4.37;;
4821;SDS011;2425;47.794;13.068;2022-07-23T07:58:13;3.97;;;3.67;;
4821;SDS011;2425;47.794;13.068;2022-07-23T08:00:39;4.73;;;4.13;;
4821;SDS011;2425;47.794;13.068;2022-07-23T08:03:06;4.60;;;4.20;;
4821;SDS011;2425;47.794;13.068;2022-07-23T08:05:33;4.43;;;4.17;;
4821;SDS011;2425;47.794;13.068;2022-07-23T08:08:00;5.00;;;4.07;;
4821;SDS011;2425;47.794;13.068;2022-07-23T08:10:27;4.20;;;3.90;;
4821;SDS011;2425;47.794;13.068;2022-07-23T08:12:56;4.53;;;3.80;;
4821;SDS011;2425;47.794;13.068;2022-07-23T08:15:25;4.37;;;4.07;;
4821;SDS011;2425;47.794;13.068;2022-07-23T08:17:53;3.70;;;3.50;;
4821;SDS011;2425;47.794;13.068;2022-07-23T08:20:21;3.90;;;3.70;;
4821;SDS011;2425;47.794;13.068;2022-07-23T08:22:48;3.93;;;3.57;;
4821;SDS011;2425;47.794;13.068;2022-07-23T08:25:19;4.73;;;4.27;;
4821;SDS011;2425;47.794;13.068;2022-07-23T08:27:47;3.90;;;3.57;;
4821;SDS011;2425;47.794;13.068;2022-07-23T08:30:14;4.00;;;3.70;;
4821;SDS011;2425;47.794;13.068;2022-07-23T08:32:52;10.40;;;3.90;;
4821;SDS011;2425;47.794;13.068;2022-07-23T08:35:24;5.17;;;4.37;;
4821;SDS011;2425;47.794;13.068;2022-07-23T08:37:52;5.63;;;3.60;;
4821;SDS011;2425;47.794;13.068;2022-07-23T08:40:20;4.13;;;3.80;;
4821;SDS011;2425;47.794;13.068;2022-07-23T08:42:48;4.03;;;3.73;;
4821;SDS011;2425;47.794;13.068;2022-07-23T08:45:16;3.70;;;3.50;;
4821;SDS011;2425;47.794;13.068;2022-07-23T08:47:46;3.70;;;3.30;;
4821;SDS011;2425;47.794;13.068;2022-07-23T08:50:16;3.30;;;3.20;;
4821;SDS011;2425;47.794;13.068;2022-07-23T08:52:43;3.77;;;3.57;;
4821;SDS011;2425;47.794;13.068;2022-07-23T08:55:10;4.40;;;4.00;;
4821;SDS011;2425;47.794;13.068;2022-07-23T08:57:37;3.97;;;3.67;;
4821;SDS011;2425;47.794;13.068;2022-07-23T09:00:04;4.27;;;4.07;;
4821;SDS011;2425;47.794;13.068;2022-07-23T09:02:37;5.83;;;4.13;;
4821;SDS011;2425;47.794;13.068;2022-07-23T09:05:05;3.70;;;3.50;;
4821;SDS011;2425;47.794;13.068;2022-07-23T09:07:33;4.53;;;4.23;;
4821;SDS011;2425;47.794;13.068;2022-07-23T09:10:07;4.63;;;3.57;;
4821;SDS011;2425;47.794;13.068;2022-07-23T09:12:36;3.87;;;3.67;;
4821;SDS011;2425;47.794;13.068;2022-07-23T09:15:04;4.00;;;3.60;;
4821;SDS011;2425;47.794;13.068;2022-07-23T09:17:36;4.87;;;4.47;;
4821;SDS011;2425;47.794;13.068;2022-07-23T09:20:07;4.30;;;4.10;;
4821;SDS011;2425;47.794;13.068;2022-07-23T09:22:37;4.47;;;4.10;;
4821;SDS011;2425;47.794;13.068;2022-07-23T09:25:05;4.23;;;3.97;;
4821;SDS011;2425;47.794;13.068;2022-07-23T09:27:46;4.37;;;4.10;;
4821;SDS011;2425;47.794;13.068;2022-07-23T09:30:18;4.30;;;3.90;;
4821;SDS011;2425;47.794;13.068;2022-07-23T09:38:15;4.50;;;4.13;;
4821;SDS011;2425;47.794;13.068;2022-07-23T09:40:42;4.17;;;3.97;;
4821;SDS011;2425;47.794;13.068;2022-07-23T09:43:10;3.60;;;3.30;;
4821;SDS011;2425;47.794;13.068;2022-07-23T09:45:37;4.10;;;3.80;;
4821;SDS011;2425;47.794;13.068;2022-07-23T09:48:12;4.50;;;4.10;;
4821;SDS011;2425;47.794;13.068;2022-07-23T09:50:39;4.20;;;4.00;;
4821;SDS011;2425;47.794;13.068;2022-07-23T09:53:07;3.67;;;3.37;;
4821;SDS011;2425;47.794;13.068;2022-07-23T09:55:35;4.37;;;4.07;;
4821;SDS011;2425;47.794;13.068;2022-07-23T09:58:03;4.80;;;4.40;;
4821;SDS011;2425;47.794;13.068;2022-07-23T10:00:31;3.90;;;3.70;;
4821;SDS011;2425;47.794;13.068;2022-07-23T10:02:58;4.53;;;4.23;;
4821;SDS011;2425;47.794;13.068;2022-07-23T10:05:26;7.10;;;4.50;;
4821;SDS011;2425;47.794;13.068;2022-07-23T10:07:54;4.70;;;4.40;;
4821;SDS011;2425;47.794;13.068;2022-07-23T10:10:21;4.53;;;4.23;;
4821;SDS011;2425;47.794;13.068;2022-07-23T10:12:49;5.23;;;4.40;;
4821;SDS011;2425;47.794;13.068;2022-07-23T10:15:39;4.67;;;4.30;;
4821;SDS011;2425;47.794;13.068;2022-07-23T10:18:06;4.70;;;4.30;;
4821;SDS011;2425;47.794;13.068;2022-07-23T10:20:33;4.60;;;4.30;;
4821;SDS011;2425;47.794;13.068;2022-07-23T10:23:01;4.37;;;4.07;;
4821;SDS011;2425;47.794;13.068;2022-07-23T10:25:35;5.33;;;4.83;;
4821;SDS011;2425;47.794;13.068;2022-07-23T10:28:12;4.90;;;4.50;;
4821;SDS011;2425;47.794;13.068;2022-07-23T10:30:49;4.70;;;4.40;;
4821;SDS011;2425;47.794;13.068;2022-07-23T10:33:23;4.03;;;3.73;;
4821;SDS011;2425;47.794;13.068;2022-07-23T10:35:56;4.73;;;4.23;;
4821;SDS011;2425;47.794;13.068;2022-07-23T10:38:30;4.93;;;4.50;;
4821;SDS011;2425;47.794;13.068;2022-07-23T10:40:58;4.50;;;4.20;;
4821;SDS011;2425;47.794;13.068;2022-07-23T10:43:27;4.37;;;4.07;;
4821;SDS011;2425;47.794;13.068;2022-07-23T10:45:54;4.67;;;4.43;;
4821;SDS011;2425;47.794;13.068;2022-07-23T10:48:22;4.97;;;4.67;;
4821;SDS011;2425;47.794;13.068;2022-07-23T10:51:07;4.47;;;4.07;;
4821;SDS011;2425;47.794;13.068;2022-07-23T10:53:55;4.50;;;4.20;;
4821;SDS011;2425;47.794;13.068;2022-07-23T10:59:33;6.27;;;5.67;;
4821;SDS011;2425;47.794;13.068;2022-07-23T11:02:38;5.87;;;5.40;;
4821;SDS011;2425;47.794;13.068;2022-07-23T11:05:07;5.30;;;4.90;;
4821;SDS011;2425;47.794;13.068;2022-07-23T11:07:35;5.00;;;4.70;;
4821;SDS011;2425;47.794;13.068;2022-07-23T11:10:02;5.43;;;4.93;;
4821;SDS011;2425;47.794;13.068;2022-07-23T11:12:35;5.07;;;4.50;;
4821;SDS011;2425;47.794;13.068;2022-07-23T11:15:05;5.40;;;4.90;;
4821;SDS011;2425;47.794;13.068;2022-07-23T11:17:33;5.10;;;4.70;;
4821;SDS011;2425;47.794;13.068;2022-07-23T11:20:19;6.07;;;5.57;;
4821;SDS011;2425;47.794;13.068;2022-07-23T11:22:48;5.47;;;5.07;;
4821;SDS011;2425;47.794;13.068;2022-07-23T11:25:30;5.20;;;4.90;;
4821;SDS011;2425;47.794;13.068;2022-07-23T11:28:09;5.10;;;4.70;;
4821;SDS011;2425;47.794;13.068;2022-07-23T11:30:39;5.50;;;5.10;;
4821;SDS011;2425;47.794;13.068;2022-07-23T11:33:17;5.33;;;4.83;;
4821;SDS011;2425;47.794;13.068;2022-07-23T11:35:46;5.60;;;5.20;;
4821;SDS011;2425;47.794;13.068;2022-07-23T11:38:15;4.93;;;4.53;;
4821;SDS011;2425;47.794;13.068;2022-07-23T11:40:44;5.03;;;4.10;;
4821;SDS011;2425;47.794;13.068;2022-07-23T11:43:11;5.30;;;4.90;;
4821;SDS011;2425;47.794;13.068;2022-07-23T11:45:40;4.73;;;4.33;;
4821;SDS011;2425;47.794;13.068;2022-07-23T11:48:08;4.90;;;4.50;;
4821;SDS011;2425;47.794;13.068;2022-07-23T11:50:41;4.90;;;4.60;;
4821;SDS011;2425;47.794;13.068;2022-07-23T11:53:08;8.10;;;4.93;;
4821;SDS011;2425;47.794;13.068;2022-07-23T11:55:35;7.23;;;5.63;;
4821;SDS011;2425;47.794;13.068;2022-07-23T11:58:01;5.20;;;4.90;;
4821;SDS011;2425;47.794;13.068;2022-07-23T12:00:29;5.33;;;4.93;;
4821;SDS011;2425;47.794;13.068;2022-07-23T12:02:58;5.90;;;5.50;;
4821;SDS011;2425;47.794;13.068;2022-07-23T12:05:27;5.17;;;4.87;;
4821;SDS011;2425;47.794;13.068;2022-07-23T12:07:55;5.70;;;5.20;;
4821;SDS011;2425;47.794;13.068;2022-07-23T12:10:23;4.90;;;4.60;;
4821;SDS011;2425;47.794;13.068;2022-07-23T12:12:51;4.97;;;4.67;;
4821;SDS011;2425;47.794;13.068;2022-07-23T12:15:21;5.93;;;5.40;;
4821;SDS011;2425;47.794;13.068;2022-07-23T12:17:49;8.93;;;4.47;;
4821;SDS011;2425;47.794;13.068;2022-07-23T12:20:48;5.30;;;4.90;;
4821;SDS011;2425;47.794;13.068;2022-07-23T12:23:16;5.03;;;4.70;;
4821;SDS011;2425;47.794;13.068;2022-07-23T12:25:45;5.00;;;4.60;;
4821;SDS011;2425;47.794;13.068;2022-07-23T12:28:14;4.63;;;4.33;;
4821;SDS011;2425;47.794;13.068;2022-07-23T12:30:43;4.80;;;4.60;;
4821;SDS011;2425;47.794;13.068;2022-07-23T12:33:11;4.97;;;4.60;;
4821;SDS011;2425;47.794;13.068;2022-07-23T12:35:40;5.13;;;4.70;;
4821;SDS011;2425;47.794;13.068;2022-07-23T12:38:09;6.77;;;5.00;;
4821;SDS011;2425;47.794;13.068;2022-07-23T12:40:41;3.93;;;3.73;;
4821;SDS011;2425;47.794;13.068;2022-07-23T12:43:09;4.60;;;4.20;;
4821;SDS011;2425;47.794;13.068;2022-07-23T12:45:45;4.10;;;3.90;;
4821;SDS011;2425;47.794;13.068;2022-07-23T12:48:16;4.90;;;4.50;;
4821;SDS011;2425;47.794;13.068;2022-07-23T12:50:48;3.80;;;3.60;;
4821;SDS011;2425;47.794;13.068;2022-07-23T12:53:18;4.40;;;4.10;;
4821;SDS011;2425;47.794;13.068;2022-07-23T12:55:46;4.63;;;4.33;;
4821;SDS011;2425;47.794;13.068;2022-07-23T12:58:14;4.80;;;4.10;;
4821;SDS011;2425;47.794;13.068;2022-07-23T13:00:53;4.43;;;4.07;;
4821;SDS011;2425;47.794;13.068;2022-07-23T13:03:29;4.53;;;3.70;;
4821;SDS011;2425;47.794;13.068;2022-07-23T13:05:58;4.13;;;3.83;;
4821;SDS011;2425;47.794;13.068;2022-07-23T13:08:28;4.93;;;4.53;;
4821;SDS011;2425;47.794;13.068;2022-07-23T13:10:56;6.17;;;5.67;;
4821;SDS011;2425;47.794;13.068;2022-07-23T13:13:24;5.63;;;5.20;;
4821;SDS011;2425;47.794;13.068;2022-07-23T13:15:52;5.53;;;4.97;;
4821;SDS011;2425;47.794;13.068;2022-07-23T13:18:19;4.97;;;4.57;;
4821;SDS011;2425;47.794;13.068;2022-07-23T13:20:47;4.40;;;4.10;;
4821;SDS011;2425;47.794;13.068;2022-07-23T13:23:14;5.93;;;4.40;;
4821;SDS011;2425;47.794;13.068;2022-07-23T13:25:42;7.03;;;4.60;;
4821;SDS011;2425;47.794;13.068;2022-07-23T13:28:09;6.10;;;4.70;;
4821;SDS011;2425;47.794;13.068;2022-07-23T13:30:36;4.50;;;4.10;;
4821;SDS011;2425;47.794;13.068;2022-07-23T13:33:03;5.17;;;4.63;;
4821;SDS011;2425;47.794;13.068;2022-07-23T13:35:30;8.30;;;5.00;;
4821;SDS011;2425;47.794;13.068;2022-07-23T13:37:57;5.00;;;4.60;;
4821;SDS011;2425;47.794;13.068;2022-07-23T13:40:24;4.97;;;4.57;;
4821;SDS011;2425;47.794;13.068;2022-07-23T13:42:52;4.90;;;4.53;;
4821;SDS011;2425;47.794;13.068;2022-07-23T13:45:18;5.57;;;4.30;;
4821;SDS011;2425;47.794;13.068;2022-07-23T13:47:45;8.37;;;4.50;;
4821;SDS011;2425;47.794;13.068;2022-07-23T13:50:12;4.77;;;4.40;;
4821;SDS011;2425;47.794;13.068;2022-07-23T13:52:41;4.90;;;4.60;;
4821;SDS011;2425;47.794;13.068;2022-07-23T13:55:08;4.80;;;4.40;;
4821;SDS011;2425;47.794;13.068;2022-07-23T13:57:35;4.80;;;4.40;;
4821;SDS011;2425;47.794;13.068;2022-07-23T14:00:04;5.63;;;5.10;;
4821;SDS011;2425;47.794;13.068;2022-07-23T14:02:34;13.23;;;4.47;;
4821;SDS011;2425;47.794;13.068;2022-07-23T14:05:02;4.70;;;4.30;;
4821;SDS011;2425;47.794;13.068;2022-07-23T14:07:29;4.97;;;4.57;;
4821;SDS011;2425;47.794;13.068;2022-07-23T14:09:56;4.57;;;4.27;;
4821;SDS011;2425;47.794;13.068;2022-07-23T14:12:22;5.33;;;4.30;;
4821;SDS011;2425;47.794;13.068;2022-07-23T14:14:49;4.13;;;3.93;;
4821;SDS011;2425;47.794;13.068;2022-07-23T14:17:17;5.23;;;4.83;;
4821;SDS011;2425;47.794;13.068;2022-07-23T14:19:44;5.10;;;4.43;;
4821;SDS011;2425;47.794;13.068;2022-07-23T14:22:11;7.80;;;4.60;;
4821;SDS011;2425;47.794;13.068;2022-07-23T14:24:38;5.57;;;5.07;;
4821;SDS011;2425;47.794;13.068;2022-07-23T14:27:05;6.50;;;4.63;;
4821;SDS011;2425;47.794;13.068;2022-07-23T14:29:31;4.67;;;4.30;;
4821;SDS011;2425;47.794;13.068;2022-07-23T14:31:58;4.80;;;4.40;;
4821;SDS011;2425;47.794;13.068;2022-07-23T14:34:27;6.00;;;4.60;;
4821;SDS011;2425;47.794;13.068;2022-07-23T14:36:54;6.07;;;4.57;;
4821;SDS011;2425;47.794;13.068;2022-07-23T14:39:20;5.23;;;4.80;;
4821;SDS011;2425;47.794;13.068;2022-07-23T14:41:47;6.70;;;4.70;;
4821;SDS011;2425;47.794;13.068;2022-07-23T14:44:14;5.30;;;4.50;;
4821;SDS011;2425;47.794;13.068;2022-07-23T14:46:41;5.00;;;4.33;;
4821;SDS011;2425;47.794;13.068;2022-07-23T14:49:08;4.50;;;4.03;;
4821;SDS011;2425;47.794;13.068;2022-07-23T14:51:36;4.90;;;4.50;;
4821;SDS011;2425;47.794;13.068;2022-07-23T14:54:03;4.50;;;4.20;;
4821;SDS011;2425;47.794;13.068;2022-07-23T14:56:30;4.83;;;4.53;;
4821;SDS011;2425;47.794;13.068;2022-07-23T14:58:58;4.97;;;4.57;;
4821;SDS011;2425;47.794;13.068;2022-07-23T15:01:25;4.87;;;4.47;;
4821;SDS011;2425;47.794;13.068;2022-07-23T15:03:52;4.60;;;4.30;;
4821;SDS011;2425;47.794;13.068;2022-07-23T15:06:19;7.53;;;4.83;;
4821;SDS011;2425;47.794;13.068;2022-07-23T15:08:47;7.50;;;4.23;;
4821;SDS011;2425;47.794;13.068;2022-07-23T15:11:14;3.97;;;3.73;;
4821;SDS011;2425;47.794;13.068;2022-07-23T15:13:40;4.80;;;4.37;;
4821;SDS011;2425;47.794;13.068;2022-07-23T15:16:08;3.87;;;3.67;;